Time;durP1;ratioP1;P1;durP2;ratioP2;P2;SDS_P1;SDS_P2;PMS_P1;PMS_P2;Temp;Humidity;BMP_temperature;BMP_pressure;BME280_temperature;BME280_humidity;BME280_pressure;Samples;Min_cycle;Max_cycle;Signal;HPM_P1;HPM_P2
2023/09/16 00:00:33;;;;;;;9.18;7.18;;;;;;;;;;5054189;28;20047;-64
2023/09/16 00:03:06;;;;;;;12.02;7.78;;;;;;;;;;5054708;28;20491;-64
2023/09/16 00:05:32;;;;;;;12.05;7.32;;;;;;;;;;5053804;28;20776;-64
2023/09/16 00:07:58;;;;;;;13.65;7.22;;;;;;;;;;5053241;28;20091;-64
2023/09/16 00:10:24;;;;;;;11.38;6.90;;;;;;;;;;5053605;28;20045;-64
2023/09/16 00:12:50;;;;;;;10.15;7.40;;;;;;;;;;5053794;28;20036;-64
2023/09/16 00:15:16;;;;;;;11.93;7.82;;;;;;;;;;5053608;28;20048;-64
2023/09/16 00:17:42;;;;;;;10.85;7.47;;;;;;;;;;5036845;28;20048;-64
2023/09/16 00:20:14;;;;;;;11.73;7.47;;;;;;;;;;5033412;28;20103;-64
2023/09/16 00:22:41;;;;;;;8.38;6.82;;;;;;;;;;5033790;28;20057;-64
2023/09/16 00:25:08;;;;;;;8.85;7.22;;;;;;;;;;5035830;28;20091;-64
2023/09/16 00:27:35;;;;;;;9.77;7.55;;;;;;;;;;5052949;28;20041;-64
2023/09/16 00:30:03;;;;;;;9.70;7.30;;;;;;;;;;5053769;28;20747;-64
2023/09/16 00:32:29;;;;;;;9.77;7.25;;;;;;;;;;5053672;28;20120;-64
2023/09/16 00:34:55;;;;;;;11.25;7.60;;;;;;;;;;5053363;28;20682;-64
2023/09/16 00:37:21;;;;;;;9.70;7.05;;;;;;;;;;5053649;28;20041;-64
2023/09/16 00:39:47;;;;;;;9.80;8.02;;;;;;;;;;5053195;28;20048;-64
2023/09/16 00:42:13;;;;;;;8.90;7.53;;;;;;;;;;5053019;28;20041;-64
2023/09/16 00:44:39;;;;;;;10.57;7.85;;;;;;;;;;5053212;28;20037;-64
2023/09/16 00:47:05;;;;;;;11.60;7.78;;;;;;;;;;5053515;28;20049;-64
2023/09/16 00:49:31;;;;;;;8.77;7.57;;;;;;;;;;5052888;28;20036;-64
2023/09/16 00:51:57;;;;;;;10.73;8.02;;;;;;;;;;5053587;28;20480;-64
2023/09/16 00:54:23;;;;;;;9.73;7.53;;;;;;;;;;5053457;28;20109;-64
2023/09/16 00:56:50;;;;;;;10.35;7.93;;;;;;;;;;5052824;28;20135;-64
2023/09/16 00:59:16;;;;;;;9.75;7.60;;;;;;;;;;5053033;28;20056;-64
2023/09/16 01:01:44;;;;;;;10.90;8.05;;;;;;;;;;5053052;28;20045;-64
2023/09/16 01:04:11;;;;;;;11.05;7.93;;;;;;;;;;5052622;28;20053;-64
2023/09/16 01:06:38;;;;;;;10.10;8.35;;;;;;;;;;5053094;28;20048;-64
2023/09/16 01:09:05;;;;;;;10.95;8.32;;;;;;;;;;5053059;28;20052;-64
2023/09/16 01:11:31;;;;;;;12.50;8.90;;;;;;;;;;5052612;28;20044;-64
2023/09/16 01:13:57;;;;;;;12.45;8.75;;;;;;;;;;5052743;28;20399;-64
2023/09/16 01:16:23;;;;;;;12.73;9.23;;;;;;;;;;5047140;28;20043;-64
2023/09/16 01:18:51;;;;;;;11.27;8.88;;;;;;;;;;5014766;28;20045;-64
2023/09/16 01:21:18;;;;;;;11.68;9.25;;;;;;;;;;5032756;28;20383;-64
2023/09/16 01:23:44;;;;;;;12.38;8.80;;;;;;;;;;5032755;28;20045;-64
2023/09/16 01:26:10;;;;;;;15.15;9.25;;;;;;;;;;5043116;28;20494;-64
2023/09/16 01:28:37;;;;;;;12.48;9.13;;;;;;;;;;5052725;28;20049;-64
2023/09/16 01:31:05;;;;;;;12.73;9.90;;;;;;;;;;5052747;28;20048;-64
2023/09/16 01:33:40;;;;;;;14.35;9.70;;;;;;;;;;5052285;28;20068;-64
2023/09/16 01:36:09;;;;;;;14.32;9.70;;;;;;;;;;5052705;28;20116;-64
2023/09/16 01:38:37;;;;;;;12.27;8.88;;;;;;;;;;5052626;28;20094;-64
2023/09/16 01:41:03;;;;;;;12.55;9.88;;;;;;;;;;5052196;28;20056;-64
2023/09/16 01:43:31;;;;;;;11.55;9.15;;;;;;;;;;5052451;28;20048;-64
2023/09/16 01:45:57;;;;;;;10.57;9.32;;;;;;;;;;5052545;28;20049;-64
2023/09/16 01:48:23;;;;;;;12.45;9.73;;;;;;;;;;5052148;28;20036;-64
2023/09/16 01:50:49;;;;;;;14.02;9.35;;;;;;;;;;5052116;28;20053;-64
2023/09/16 01:53:16;;;;;;;10.48;8.77;;;;;;;;;;5052403;28;20112;-64
2023/09/16 01:55:42;;;;;;;13.45;9.82;;;;;;;;;;5052176;28;20033;-64
2023/09/16 01:58:08;;;;;;;12.68;9.77;;;;;;;;;;5051926;28;20049;-64
2023/09/16 02:00:35;;;;;;;13.30;10.73;;;;;;;;;;5052009;28;20044;-64
2023/09/16 02:03:01;;;;;;;13.10;10.07;;;;;;;;;;5052218;28;20080;-64
2023/09/16 02:05:27;;;;;;;13.80;10.65;;;;;;;;;;5051619;28;20048;-64
2023/09/16 02:07:53;;;;;;;12.05;9.90;;;;;;;;;;5051782;28;20097;-64
2023/09/16 02:10:19;;;;;;;12.07;10.00;;;;;;;;;;5051764;28;20044;-64
2023/09/16 02:12:45;;;;;;;12.75;10.23;;;;;;;;;;5051655;28;20033;-64
2023/09/16 02:15:12;;;;;;;13.25;10.35;;;;;;;;;;5051214;28;20040;-64
2023/09/16 02:17:41;;;;;;;12.98;10.45;;;;;;;;;;5036054;28;20068;-64
2023/09/16 02:20:11;;;;;;;15.60;11.05;;;;;;;;;;5031657;28;20100;-64
2023/09/16 02:22:37;;;;;;;13.20;11.02;;;;;;;;;;5014265;28;20053;-64
2023/09/16 02:25:03;;;;;;;11.50;9.80;;;;;;;;;;5033337;28;20037;-64
2023/09/16 02:27:30;;;;;;;13.48;9.88;;;;;;;;;;5033158;28;20061;-64
2023/09/16 02:29:56;;;;;;;13.82;10.30;;;;;;;;;;5051604;28;20033;-64
2023/09/16 02:32:22;;;;;;;13.30;10.77;;;;;;;;;;5051744;28;20048;-64
2023/09/16 02:34:48;;;;;;;13.98;10.88;;;;;;;;;;5051260;28;20048;-64
2023/09/16 02:37:14;;;;;;;14.85;10.05;;;;;;;;;;5051715;28;20029;-64
2023/09/16 02:39:40;;;;;;;12.65;10.30;;;;;;;;;;5033491;28;20051;-64
2023/09/16 02:42:06;;;;;;;13.02;10.38;;;;;;;;;;5050849;28;20049;-64
2023/09/16 02:44:32;;;;;;;12.77;10.38;;;;;;;;;;5051543;28;20399;-64
2023/09/16 02:46:58;;;;;;;13.02;10.63;;;;;;;;;;5051532;28;20033;-64
2023/09/16 02:49:24;;;;;;;12.32;10.50;;;;;;;;;;5051011;28;20037;-64
2023/09/16 02:51:50;;;;;;;14.75;10.68;;;;;;;;;;5051472;28;20056;-64
2023/09/16 02:54:16;;;;;;;13.38;10.90;;;;;;;;;;5051541;28;20041;-64
2023/09/16 02:56:42;;;;;;;12.32;10.00;;;;;;;;;;5051129;28;20055;-64
2023/09/16 02:59:08;;;;;;;13.50;10.52;;;;;;;;;;5051509;28;20043;-64
2023/09/16 03:01:34;;;;;;;10.82;9.65;;;;;;;;;;5051456;28;20044;-64
2023/09/16 03:04:00;;;;;;;13.07;10.25;;;;;;;;;;5051051;28;20456;-64
2023/09/16 03:06:26;;;;;;;13.93;10.27;;;;;;;;;;5051285;28;20041;-64
2023/09/16 03:08:53;;;;;;;10.70;9.50;;;;;;;;;;5051406;28;20048;-64
2023/09/16 03:11:19;;;;;;;11.23;9.98;;;;;;;;;;5050974;28;20110;-64
2023/09/16 03:13:45;;;;;;;12.57;9.82;;;;;;;;;;5051310;28;20072;-64
2023/09/16 03:16:21;;;;;;;13.80;10.77;;;;;;;;;;5047030;28;20037;-64
2023/09/16 03:18:49;;;;;;;11.18;9.48;;;;;;;;;;5030939;28;20034;-64
2023/09/16 03:21:16;;;;;;;12.02;10.10;;;;;;;;;;5031368;28;20046;-64
2023/09/16 03:23:42;;;;;;;10.45;9.23;;;;;;;;;;5031304;28;20484;-64
2023/09/16 03:26:09;;;;;;;11.32;9.45;;;;;;;;;;5043636;28;20394;-64
2023/09/16 03:28:36;;;;;;;12.93;9.95;;;;;;;;;;5055117;28;20072;-64
2023/09/16 03:31:02;;;;;;;10.55;9.45;;;;;;;;;;5055039;28;20112;-64
2023/09/16 03:33:28;;;;;;;11.55;9.60;;;;;;;;;;5054482;28;20051;-64
2023/09/16 03:35:54;;;;;;;12.90;9.75;;;;;;;;;;5055041;28;20634;-64
2023/09/16 03:38:20;;;;;;;11.38;9.70;;;;;;;;;;5055051;28;20068;-64
2023/09/16 03:40:46;;;;;;;11.23;10.00;;;;;;;;;;5054127;28;20506;-64
2023/09/16 03:43:12;;;;;;;12.18;9.90;;;;;;;;;;5054579;28;20100;-64
2023/09/16 03:45:38;;;;;;;11.27;10.07;;;;;;;;;;5054785;28;20063;-64
2023/09/16 03:48:04;;;;;;;13.27;9.13;;;;;;;;;;5054008;28;20052;-64
2023/09/16 03:50:30;;;;;;;12.55;9.45;;;;;;;;;;5054234;28;20049;-64
2023/09/16 03:52:56;;;;;;;12.25;9.95;;;;;;;;;;5054635;28;20045;-64
2023/09/16 03:55:22;;;;;;;9.85;8.48;;;;;;;;;;5054212;28;20509;-64
2023/09/16 03:57:48;;;;;;;11.35;9.85;;;;;;;;;;5054280;28;20049;-64
2023/09/16 04:00:14;;;;;;;12.63;9.35;;;;;;;;;;5054407;28;20047;-64
2023/09/16 04:02:40;;;;;;;11.23;9.15;;;;;;;;;;5036209;28;20129;-64
2023/09/16 04:05:07;;;;;;;10.30;9.23;;;;;;;;;;5054369;28;20037;-64
2023/09/16 04:07:34;;;;;;;9.73;8.63;;;;;;;;;;5054145;28;20043;-64
2023/09/16 04:10:00;;;;;;;10.80;9.15;;;;;;;;;;5036087;28;20049;-64
2023/09/16 04:12:26;;;;;;;11.55;8.40;;;;;;;;;;5054212;28;20052;-64
2023/09/16 04:14:52;;;;;;;8.95;7.72;;;;;;;;;;5054268;28;20647;-64
2023/09/16 04:17:19;;;;;;;7.35;6.63;;;;;;;;;;5022944;28;20052;-64
2023/09/16 04:19:45;;;;;;;7.53;6.72;;;;;;;;;;5034353;28;20045;-64
2023/09/16 04:22:11;;;;;;;7.25;6.50;;;;;;;;;;5034169;28;20049;-64
2023/09/16 04:24:37;;;;;;;7.65;6.65;;;;;;;;;;5033661;28;20047;-64
2023/09/16 04:27:03;;;;;;;7.18;6.47;;;;;;;;;;5051773;28;20052;-64
2023/09/16 04:29:29;;;;;;;7.72;6.90;;;;;;;;;;5036143;28;20094;-64
2023/09/16 04:31:56;;;;;;;7.93;7.15;;;;;;;;;;5053546;28;20040;-64
2023/09/16 04:34:22;;;;;;;10.32;7.00;;;;;;;;;;5053882;28;20099;-64
2023/09/16 04:36:48;;;;;;;7.63;6.78;;;;;;;;;;5053107;28;20037;-64
2023/09/16 04:39:16;;;;;;;7.47;6.50;;;;;;;;;;5053443;28;20094;-64
2023/09/16 04:41:42;;;;;;;7.10;6.40;;;;;;;;;;5053695;28;20056;-64
2023/09/16 04:44:08;;;;;;;6.28;5.68;;;;;;;;;;5053585;28;20471;-64
2023/09/16 04:46:34;;;;;;;6.85;6.15;;;;;;;;;;5053242;28;20052;-64
2023/09/16 04:49:00;;;;;;;6.45;5.85;;;;;;;;;;5053362;28;20075;-64
2023/09/16 04:51:26;;;;;;;6.95;6.20;;;;;;;;;;5053156;28;20146;-64
2023/09/16 04:53:55;;;;;;;6.80;6.20;;;;;;;;;;5053057;28;20040;-64
2023/09/16 04:56:21;;;;;;;6.78;6.05;;;;;;;;;;5053508;28;20106;-64
2023/09/16 04:58:49;;;;;;;6.88;6.22;;;;;;;;;;5053497;28;20056;-64
2023/09/16 05:01:15;;;;;;;7.75;6.68;;;;;;;;;;5053098;28;20049;-64
2023/09/16 05:03:41;;;;;;;8.73;7.88;;;;;;;;;;5053228;28;20032;-64
2023/09/16 05:06:07;;;;;;;7.80;7.00;;;;;;;;;;5053051;28;20052;-64
2023/09/16 05:08:33;;;;;;;8.52;6.50;;;;;;;;;;5052918;28;20047;-64
2023/09/16 05:10:59;;;;;;;8.75;7.72;;;;;;;;;;5053131;28;20596;-64
2023/09/16 05:13:25;;;;;;;11.63;7.65;;;;;;;;;;5053304;28;20036;-64
2023/09/16 05:15:51;;;;;;;8.70;7.30;;;;;;;;;;5033311;28;20072;-64
2023/09/16 05:18:18;;;;;;;9.32;7.22;;;;;;;;;;5033290;28;20450;-64
2023/09/16 05:20:44;;;;;;;8.45;7.32;;;;;;;;;;5033177;28;20419;-64
2023/09/16 05:23:11;;;;;;;8.75;7.82;;;;;;;;;;5032711;28;20045;-64
2023/09/16 05:25:44;;;;;;;9.50;8.25;;;;;;;;;;5039169;28;20071;-64
2023/09/16 05:28:10;;;;;;;8.38;7.47;;;;;;;;;;5052813;28;20446;-64
2023/09/16 05:30:36;;;;;;;8.70;7.80;;;;;;;;;;5052311;28;20107;-64
2023/09/16 05:33:02;;;;;;;7.90;7.13;;;;;;;;;;5052869;28;20086;-64
2023/09/16 05:35:28;;;;;;;8.50;7.68;;;;;;;;;;5052674;28;20123;-64
2023/09/16 05:37:54;;;;;;;12.75;7.72;;;;;;;;;;5052309;28;20041;-64
2023/09/16 05:40:20;;;;;;;8.70;7.80;;;;;;;;;;5052590;28;20590;-64
2023/09/16 05:42:46;;;;;;;9.18;8.15;;;;;;;;;;5052523;28;20124;-64
2023/09/16 05:45:12;;;;;;;9.40;8.50;;;;;;;;;;5051925;28;20041;-64
2023/09/16 05:47:38;;;;;;;9.38;8.05;;;;;;;;;;5052394;28;20469;-64
2023/09/16 05:50:05;;;;;;;10.50;9.30;;;;;;;;;;5052124;28;20045;-64
2023/09/16 05:52:31;;;;;;;11.10;9.18;;;;;;;;;;5052193;28;20838;-64
2023/09/16 05:54:57;;;;;;;11.85;9.70;;;;;;;;;;5052166;28;20045;-64
2023/09/16 05:57:24;;;;;;;11.32;9.65;;;;;;;;;;5052413;28;20123;-64
2023/09/16 05:59:50;;;;;;;13.23;10.50;;;;;;;;;;5052515;28;20460;-64
2023/09/16 06:02:16;;;;;;;12.18;10.50;;;;;;;;;;5051524;28;20049;-64
2023/09/16 06:04:42;;;;;;;12.18;10.48;;;;;;;;;;5052077;28;20040;-64
2023/09/16 06:07:08;;;;;;;10.30;9.30;;;;;;;;;;5052108;28;20052;-64
2023/09/16 06:09:34;;;;;;;12.98;10.07;;;;;;;;;;5051649;28;20048;-64
2023/09/16 06:12:00;;;;;;;12.65;10.13;;;;;;;;;;5052006;28;20041;-64
2023/09/16 06:14:26;;;;;;;11.88;10.57;;;;;;;;;;5051604;28;20048;-64
2023/09/16 06:16:52;;;;;;;11.98;10.43;;;;;;;;;;5041721;28;20091;-64
2023/09/16 06:19:18;;;;;;;14.70;11.13;;;;;;;;;;5032005;28;20132;-64
2023/09/16 06:21:45;;;;;;;16.30;12.23;;;;;;;;;;5031941;28;20041;-64
2023/09/16 06:24:11;;;;;;;17.40;11.65;;;;;;;;;;5031657;28;20045;-64
2023/09/16 06:26:37;;;;;;;17.67;13.30;;;;;;;;;;5046299;28;20379;-64
2023/09/16 06:29:03;;;;;;;14.73;13.15;;;;;;;;;;5051830;28;20525;-64
2023/09/16 06:31:29;;;;;;;22.73;16.05;;;;;;;;;;5050998;28;20043;-64
2023/09/16 06:33:55;;;;;;;18.38;15.13;;;;;;;;;;5051773;28;20460;-64
2023/09/16 06:36:22;;;;;;;19.67;15.32;;;;;;;;;;5051755;28;20043;-64
2023/09/16 06:38:48;;;;;;;19.83;16.95;;;;;;;;;;5051353;28;20036;-64
2023/09/16 06:41:14;;;;;;;20.83;16.02;;;;;;;;;;5051654;28;20407;-64
2023/09/16 06:43:40;;;;;;;21.58;16.98;;;;;;;;;;5051479;28;20051;-64
2023/09/16 06:46:06;;;;;;;22.52;17.52;;;;;;;;;;5051170;28;20053;-64
2023/09/16 06:48:32;;;;;;;22.27;17.35;;;;;;;;;;5051544;28;20037;-64
2023/09/16 06:50:58;;;;;;;21.63;17.42;;;;;;;;;;5051130;28;20068;-64
2023/09/16 06:53:24;;;;;;;23.02;18.23;;;;;;;;;;5051257;28;20127;-64
2023/09/16 06:55:50;;;;;;;21.58;17.67;;;;;;;;;;5051426;28;20037;-64
2023/09/16 06:58:20;;;;;;;21.88;18.10;;;;;;;;;;5051409;28;20048;-64
2023/09/16 07:00:46;;;;;;;21.98;18.20;;;;;;;;;;5050652;28;20056;-64
2023/09/16 07:03:12;;;;;;;23.05;18.13;;;;;;;;;;5051525;28;20407;-64
2023/09/16 07:05:39;;;;;;;22.35;18.35;;;;;;;;;;5051347;28;20107;-64
2023/09/16 07:08:05;;;;;;;22.90;18.67;;;;;;;;;;5032907;28;20080;-64
2023/09/16 07:10:31;;;;;;;28.08;20.38;;;;;;;;;;5051359;28;20090;-64
2023/09/16 07:12:57;;;;;;;24.98;19.45;;;;;;;;;;5051092;28;20033;-64
2023/09/16 07:15:24;;;;;;;24.90;20.45;;;;;;;;;;5033036;28;20037;-64
2023/09/16 07:17:50;;;;;;;23.50;19.67;;;;;;;;;;5033916;28;20046;-64
2023/09/16 07:20:16;;;;;;;21.88;17.90;;;;;;;;;;5031429;28;20046;-64
2023/09/16 07:22:43;;;;;;;28.40;20.55;;;;;;;;;;5030979;28;20084;-64
2023/09/16 07:25:09;;;;;;;21.38;17.88;;;;;;;;;;5033026;28;20041;-64
2023/09/16 07:27:35;;;;;;;25.15;17.67;;;;;;;;;;5051077;28;20072;-64
2023/09/16 07:30:01;;;;;;;22.70;17.60;;;;;;;;;;5050707;28;20402;-64
2023/09/16 07:32:27;;;;;;;21.45;18.20;;;;;;;;;;5050971;28;20033;-64
2023/09/16 07:34:53;;;;;;;23.30;19.35;;;;;;;;;;5051042;28;20037;-64
2023/09/16 07:37:19;;;;;;;26.25;19.58;;;;;;;;;;5050730;28;20048;-64
2023/09/16 07:39:47;;;;;;;25.02;19.15;;;;;;;;;;5051007;28;20446;-64
2023/09/16 07:42:13;;;;;;;23.33;17.58;;;;;;;;;;5051197;28;20060;-64
2023/09/16 07:44:39;;;;;;;21.27;17.90;;;;;;;;;;5050212;28;20041;-64
2023/09/16 07:47:05;;;;;;;22.55;18.65;;;;;;;;;;5050923;28;20056;-64
2023/09/16 07:49:31;;;;;;;23.08;16.85;;;;;;;;;;5050614;28;20037;-64
2023/09/16 07:51:57;;;;;;;22.73;17.58;;;;;;;;;;5050523;28;20048;-64
2023/09/16 07:54:23;;;;;;;22.23;16.75;;;;;;;;;;5050825;28;20044;-64
2023/09/16 07:56:49;;;;;;;22.85;17.23;;;;;;;;;;5050923;28;20056;-64
2023/09/16 07:59:19;;;;;;;18.95;15.63;;;;;;;;;;5050509;28;20040;-64
2023/09/16 08:01:45;;;;;;;20.77;15.13;;;;;;;;;;5050820;28;20128;-64
2023/09/16 08:04:11;;;;;;;19.58;15.70;;;;;;;;;;5050842;28;20048;-64
2023/09/16 08:06:37;;;;;;;17.70;14.27;;;;;;;;;;5050545;28;20675;-64
2023/09/16 08:09:03;;;;;;;15.82;13.10;;;;;;;;;;5050843;28;20037;-64
2023/09/16 08:11:29;;;;;;;17.10;13.57;;;;;;;;;;5050657;28;20489;-64
2023/09/16 08:13:55;;;;;;;16.60;14.40;;;;;;;;;;5053600;28;20040;-64
2023/09/16 08:16:22;;;;;;;18.40;13.68;;;;;;;;;;5048987;28;20034;-64
2023/09/16 08:18:48;;;;;;;17.02;13.23;;;;;;;;;;5034373;28;20454;-64
2023/09/16 08:21:13;;;;;;;18.75;14.82;;;;;;;;;;5033921;28;20045;-64
2023/09/16 08:23:41;;;;;;;19.40;14.23;;;;;;;;;;5034090;28;20068;-64
2023/09/16 08:26:07;;;;;;;18.45;14.45;;;;;;;;;;5044334;28;20442;-64
2023/09/16 08:28:35;;;;;;;19.55;15.60;;;;;;;;;;5053716;28;20371;-64
2023/09/16 08:31:02;;;;;;;17.30;14.90;;;;;;;;;;5053675;28;20090;-64
2023/09/16 08:33:28;;;;;;;20.20;14.48;;;;;;;;;;5053889;28;20045;-64
2023/09/16 08:35:54;;;;;;;17.17;13.98;;;;;;;;;;5053569;28;20032;-64
2023/09/16 08:38:20;;;;;;;18.33;13.73;;;;;;;;;;5053995;28;20069;-64
2023/09/16 08:40:49;;;;;;;18.48;13.13;;;;;;;;;;5053807;28;20048;-64
2023/09/16 08:43:34;;;;;;;16.98;13.57;;;;;;;;;;5053529;28;20095;-64
2023/09/16 08:46:01;;;;;;;14.95;13.35;;;;;;;;;;5053616;28;20041;-64
2023/09/16 08:48:31;;;;;;;17.98;14.10;;;;;;;;;;5053820;28;20415;-64
2023/09/16 08:50:58;;;;;;;17.55;12.50;;;;;;;;;;5052797;28;20630;-64
2023/09/16 08:53:25;;;;;;;13.43;11.02;;;;;;;;;;5053579;28;20059;-64
2023/09/16 08:55:55;;;;;;;12.30;9.57;;;;;;;;;;5053407;28;20079;-64
2023/09/16 08:58:21;;;;;;;16.17;10.90;;;;;;;;;;5052868;28;20047;-64
2023/09/16 09:00:47;;;;;;;16.30;11.85;;;;;;;;;;5053433;28;20488;-64
2023/09/16 09:03:13;;;;;;;12.93;10.80;;;;;;;;;;5053503;28;20064;-64
2023/09/16 09:05:39;;;;;;;12.10;10.73;;;;;;;;;;5052935;28;20045;-64
2023/09/16 09:08:08;;;;;;;13.85;10.52;;;;;;;;;;5053253;28;20471;-64
2023/09/16 09:10:36;;;;;;;14.60;11.10;;;;;;;;;;5053297;28;20040;-64
2023/09/16 09:13:03;;;;;;;14.27;10.52;;;;;;;;;;5035134;28;20041;-64
2023/09/16 09:15:29;;;;;;;12.15;10.70;;;;;;;;;;5053135;28;20615;-64
2023/09/16 09:17:56;;;;;;;15.35;11.63;;;;;;;;;;5034904;28;20037;-64
2023/09/16 09:20:23;;;;;;;15.05;11.45;;;;;;;;;;5032758;28;20042;-64
2023/09/16 09:22:50;;;;;;;14.50;10.20;;;;;;;;;;5032943;28;20042;-64
2023/09/16 09:25:21;;;;;;;15.80;10.57;;;;;;;;;;5036285;28;20036;-64
2023/09/16 09:27:48;;;;;;;13.95;10.20;;;;;;;;;;5052422;28;20056;-64
2023/09/16 09:30:14;;;;;;;14.75;9.82;;;;;;;;;;5052573;28;20041;-64
2023/09/16 09:32:43;;;;;;;14.20;9.40;;;;;;;;;;5052811;28;20033;-64
2023/09/16 09:35:11;;;;;;;14.75;11.43;;;;;;;;;;5051987;28;20040;-64
2023/09/16 09:37:37;;;;;;;12.45;10.00;;;;;;;;;;5052784;28;20552;-64
2023/09/16 09:40:10;;;;;;;13.70;11.27;;;;;;;;;;5052659;28;20080;-64
2023/09/16 09:42:43;;;;;;;14.15;10.75;;;;;;;;;;5052244;28;20500;-64
2023/09/16 09:45:10;;;;;;;15.23;10.80;;;;;;;;;;5052494;28;20041;-64
2023/09/16 09:47:39;;;;;;;12.27;9.63;;;;;;;;;;5052399;28;20049;-64
2023/09/16 09:50:08;;;;;;;10.65;9.43;;;;;;;;;;5051856;28;20128;-64
2023/09/16 09:52:37;;;;;;;11.13;9.38;;;;;;;;;;5052455;28;20483;-64
2023/09/16 09:55:03;;;;;;;12.45;9.40;;;;;;;;;;5052388;28;20071;-64
2023/09/16 09:57:29;;;;;;;11.30;8.68;;;;;;;;;;5051725;28;20080;-64
2023/09/16 09:59:56;;;;;;;12.30;8.65;;;;;;;;;;5052273;28;20128;-64
2023/09/16 10:02:26;;;;;;;10.60;7.63;;;;;;;;;;5052326;28;20041;-64
2023/09/16 10:05:02;;;;;;;13.55;8.43;;;;;;;;;;5034003;28;20036;-64
2023/09/16 10:07:31;;;;;;;10.10;8.20;;;;;;;;;;5052153;28;20073;-64
2023/09/16 10:09:58;;;;;;;14.30;8.77;;;;;;;;;;5052084;28;20090;-64
2023/09/16 10:12:24;;;;;;;11.57;7.85;;;;;;;;;;5051653;28;20445;-64
2023/09/16 10:14:53;;;;;;;9.50;7.28;;;;;;;;;;5052034;28;20076;-64
2023/09/16 10:17:21;;;;;;;9.40;6.70;;;;;;;;;;5038503;28;20076;-64
2023/09/16 10:19:47;;;;;;;8.82;6.20;;;;;;;;;;5031793;28;20049;-64
2023/09/16 10:22:14;;;;;;;8.27;6.00;;;;;;;;;;5032065;28;20069;-64
2023/09/16 10:24:43;;;;;;;9.68;6.70;;;;;;;;;;5031971;28;20107;-64
2023/09/16 10:27:15;;;;;;;12.07;7.07;;;;;;;;;;5050228;28;20098;-64
2023/09/16 10:29:42;;;;;;;8.60;6.28;;;;;;;;;;5033686;28;20041;-64
2023/09/16 10:32:08;;;;;;;8.13;5.57;;;;;;;;;;5051686;28;20124;-64
2023/09/16 10:34:35;;;;;;;10.63;6.15;;;;;;;;;;5050653;28;20395;-64
2023/09/16 10:37:02;;;;;;;10.55;5.75;;;;;;;;;;5051753;28;20079;-64
2023/09/16 10:39:28;;;;;;;7.88;5.90;;;;;;;;;;5051707;28;20532;-64
2023/09/16 10:41:55;;;;;;;7.75;5.45;;;;;;;;;;5050990;28;20072;-64
2023/09/16 10:44:21;;;;;;;8.05;5.35;;;;;;;;;;5051529;28;20076;-64
2023/09/16 10:46:49;;;;;;;6.90;5.60;;;;;;;;;;5051447;28;20726;-64
2023/09/16 10:49:15;;;;;;;6.07;5.40;;;;;;;;;;5051059;28;20037;-64
2023/09/16 10:51:42;;;;;;;6.70;4.40;;;;;;;;;;5051506;28;20047;-64
2023/09/16 10:54:17;;;;;;;9.73;5.25;;;;;;;;;;5051396;28;20452;-64
2023/09/16 10:56:44;;;;;;;6.40;4.75;;;;;;;;;;5051071;28;20041;-64
2023/09/16 10:59:13;;;;;;;7.00;4.93;;;;;;;;;;5051436;28;20109;-64
2023/09/16 11:01:48;;;;;;;9.15;5.10;;;;;;;;;;5051310;28;20361;-64
2023/09/16 11:04:16;;;;;;;9.55;4.80;;;;;;;;;;5032886;28;20053;-64
2023/09/16 11:06:50;;;;;;;6.70;5.28;;;;;;;;;;5051268;28;20044;-64
2023/09/16 11:09:16;;;;;;;7.70;5.40;;;;;;;;;;5051338;28;20052;-65
2023/09/16 11:11:43;;;;;;;14.43;4.85;;;;;;;;;;5050843;28;20365;-65
2023/09/16 11:14:10;;;;;;;7.13;4.53;;;;;;;;;;5051280;28;20138;-65
2023/09/16 11:16:45;;;;;;;7.82;3.97;;;;;;;;;;5044174;28;20037;-65
2023/09/16 11:19:22;;;;;;;4.97;3.78;;;;;;;;;;5030971;28;20128;-65
2023/09/16 11:21:48;;;;;;;5.10;3.95;;;;;;;;;;5031315;28;20432;-65
2023/09/16 11:24:14;;;;;;;5.95;3.30;;;;;;;;;;5031216;28;20128;-65
2023/09/16 11:26:40;;;;;;;5.00;3.40;;;;;;;;;;5045531;28;20045;-65
2023/09/16 11:29:19;;;;;;;4.18;3.08;;;;;;;;;;5050949;28;20077;-65
2023/09/16 11:31:45;;;;;;;3.35;2.78;;;;;;;;;;5051006;28;20080;-65
2023/09/16 11:34:12;;;;;;;5.55;2.90;;;;;;;;;;5050675;28;20359;-65
2023/09/16 11:36:42;;;;;;;5.38;3.13;;;;;;;;;;5051042;28;20049;-65
2023/09/16 11:39:10;;;;;;;3.72;2.67;;;;;;;;;;5051253;28;20171;-65
2023/09/16 11:41:36;;;;;;;4.60;2.72;;;;;;;;;;5050239;28;20540;-65
2023/09/16 11:44:02;;;;;;;4.38;2.53;;;;;;;;;;5050946;28;20037;-65
2023/09/16 11:46:29;;;;;;;5.10;2.65;;;;;;;;;;5052235;28;20072;-65
2023/09/16 11:48:59;;;;;;;6.07;2.83;;;;;;;;;;5054414;28;20032;-65
2023/09/16 11:51:26;;;;;;;4.82;2.78;;;;;;;;;;5054431;28;20049;-65
2023/09/16 11:53:53;;;;;;;6.13;2.75;;;;;;;;;;5054687;28;20055;-65
2023/09/16 11:56:20;;;;;;;3.25;2.80;;;;;;;;;;5054381;28;20041;-65
2023/09/16 11:58:47;;;;;;;4.05;3.00;;;;;;;;;;5054708;28;20095;-65
2023/09/16 12:01:13;;;;;;;3.90;2.53;;;;;;;;;;5054599;28;20124;-65
2023/09/16 12:03:42;;;;;;;5.97;2.63;;;;;;;;;;5054040;28;20044;-65
2023/09/16 12:06:11;;;;;;;4.15;3.03;;;;;;;;;;5036567;28;20045;-65
2023/09/16 12:08:42;;;;;;;4.25;3.10;;;;;;;;;;5054548;28;20033;-65
2023/09/16 12:11:08;;;;;;;4.88;2.85;;;;;;;;;;5054025;28;20032;-65
2023/09/16 12:13:34;;;;;;;2.90;2.60;;;;;;;;;;5036668;28;20043;-65
2023/09/16 12:16:00;;;;;;;4.93;2.63;;;;;;;;;;5052046;28;20079;-65
2023/09/16 12:18:28;;;;;;;4.00;2.65;;;;;;;;;;5033665;28;20057;-65
2023/09/16 12:20:54;;;;;;;4.05;2.33;;;;;;;;;;5034440;28;20095;-65
2023/09/16 12:23:20;;;;;;;4.20;2.47;;;;;;;;;;5034284;28;20558;-65
2023/09/16 12:25:46;;;;;;;5.22;2.80;;;;;;;;;;5040934;28;20044;-65
2023/09/16 12:28:22;;;;;;;5.65;3.03;;;;;;;;;;5054026;28;20045;-65
2023/09/16 12:30:51;;;;;;;4.53;2.45;;;;;;;;;;5053961;28;20048;-65
2023/09/16 12:33:18;;;;;;;5.93;2.70;;;;;;;;;;5053580;28;20119;-65
2023/09/16 12:35:46;;;;;;;3.83;2.40;;;;;;;;;;5054000;28;20087;-65
2023/09/16 12:38:12;;;;;;;3.60;3.17;;;;;;;;;;5054025;28;20091;-65
2023/09/16 12:40:38;;;;;;;3.22;2.80;;;;;;;;;;5053519;28;20048;-65
2023/09/16 12:43:05;;;;;;;4.43;3.10;;;;;;;;;;5054081;28;20040;-65
2023/09/16 12:45:32;;;;;;;4.70;2.90;;;;;;;;;;5053888;28;20036;-65
2023/09/16 12:47:58;;;;;;;3.05;2.28;;;;;;;;;;5053118;28;20041;-65
2023/09/16 12:50:25;;;;;;;3.30;2.55;;;;;;;;;;5053494;28;20053;-65
2023/09/16 12:52:51;;;;;;;4.07;2.90;;;;;;;;;;5053678;28;20382;-65
2023/09/16 12:55:17;;;;;;;4.57;2.50;;;;;;;;;;5053113;28;20033;-65
2023/09/16 12:57:43;;;;;;;3.33;2.10;;;;;;;;;;5052954;28;20084;-65
2023/09/16 13:00:15;;;;;;;4.93;2.47;;;;;;;;;;5053570;28;20040;-65
2023/09/16 13:02:41;;;;;;;4.40;2.67;;;;;;;;;;5053149;28;20051;-65
2023/09/16 13:05:10;;;;;;;3.28;2.50;;;;;;;;;;5053137;28;20041;-65
2023/09/16 13:07:37;;;;;;;3.83;2.40;;;;;;;;;;5052396;28;20048;-65
2023/09/16 13:10:04;;;;;;;6.03;2.70;;;;;;;;;;5052851;28;20052;-65
2023/09/16 13:12:30;;;;;;;6.15;3.00;;;;;;;;;;5034943;28;20037;-65
2023/09/16 13:14:57;;;;;;;2.72;2.20;;;;;;;;;;5052545;28;20486;-65
2023/09/16 13:17:23;;;;;;;3.90;2.28;;;;;;;;;;5020796;28;20081;-65
2023/09/16 13:19:49;;;;;;;3.97;2.60;;;;;;;;;;5014953;28;20048;-65
2023/09/16 13:22:17;;;;;;;4.40;2.90;;;;;;;;;;5032753;28;20092;-65
2023/09/16 13:24:45;;;;;;;6.13;2.63;;;;;;;;;;5032166;28;20042;-65
2023/09/16 13:27:16;;;;;;;4.75;2.58;;;;;;;;;;5051423;28;20098;-65
2023/09/16 13:29:42;;;;;;;6.88;2.83;;;;;;;;;;5053030;28;20029;-65
2023/09/16 13:32:10;;;;;;;3.28;2.10;;;;;;;;;;5052295;28;20094;-62
2023/09/16 13:34:46;;;;;;;5.20;2.55;;;;;;;;;;5052648;28;20048;-63
2023/09/16 13:37:13;;;;;;;4.40;2.70;;;;;;;;;;5052805;28;20045;-62
2023/09/16 13:39:45;;;;;;;5.22;2.80;;;;;;;;;;5052467;28;20043;-62
2023/09/16 13:42:11;;;;;;;3.40;2.33;;;;;;;;;;5052405;28;20044;-62
2023/09/16 13:44:37;;;;;;;3.63;2.50;;;;;;;;;;5052608;28;20392;-63
2023/09/16 13:47:03;;;;;;;4.03;2.60;;;;;;;;;;5052163;28;20102;-62
2023/09/16 13:49:32;;;;;;;2.65;2.45;;;;;;;;;;5052360;28;20411;-62
2023/09/16 13:51:58;;;;;;;3.08;2.08;;;;;;;;;;5052583;28;20452;-62
2023/09/16 13:54:24;;;;;;;4.80;3.00;;;;;;;;;;5051952;28;20037;-63
2023/09/16 13:56:51;;;;;;;5.13;1.90;;;;;;;;;;5052419;28;20048;-62
2023/09/16 13:59:17;;;;;;;4.53;2.30;;;;;;;;;;5052493;28;20842;-62
2023/09/16 14:01:44;;;;;;;4.95;2.45;;;;;;;;;;5051976;28;20124;-62
2023/09/16 14:04:10;;;;;;;3.38;2.45;;;;;;;;;;5052378;28;20049;-62
2023/09/16 14:06:36;;;;;;;3.40;2.42;;;;;;;;;;5052056;28;20037;-62
2023/09/16 14:09:02;;;;;;;3.30;2.28;;;;;;;;;;5051680;28;20045;-62
2023/09/16 14:11:28;;;;;;;3.90;2.25;;;;;;;;;;5051503;28;20041;-62
2023/09/16 14:13:54;;;;;;;10.82;2.58;;;;;;;;;;5052012;28;20086;-62
2023/09/16 14:16:20;;;;;;;3.17;2.33;;;;;;;;;;5046758;28;20041;-62
2023/09/16 14:18:46;;;;;;;3.78;2.15;;;;;;;;;;5032236;28;20037;-62
2023/09/16 14:21:12;;;;;;;3.03;2.35;;;;;;;;;;5031934;28;20124;-62
2023/09/16 14:23:38;;;;;;;5.55;2.13;;;;;;;;;;5031482;28;20168;-62
2023/09/16 14:26:04;;;;;;;4.22;2.42;;;;;;;;;;5041853;28;20033;-62
2023/09/16 14:28:32;;;;;;;3.70;2.30;;;;;;;;;;5051782;28;20052;-62